Time,TemperatureF,DewpointF,PressureIn,WindDirection,WindDirectionDegrees,WindSpeedMPH,WindSpeedGustMPH,Humidity,HourlyPrecipIn,Conditions,Clouds,dailyrainin,SoftwareType,DateUTC
2013-02-04 00:03:00,35.9,26.8,30.04,ENE,57,2.7,3.1,69,0.00,,,0.00,VWS V13.01,2013-02-04 06:03:00,
2013-02-04 00:08:00,36.1,26.6,30.04,NE,46,2.7,2.7,68,0.00,,,0.00,VWS V13.01,2013-02-04 06:08:00,
2013-02-04 00:13:00,36.3,26.8,30.04,NE,41,2.7,3.1,68,0.00,,,0.00,VWS V13.01,2013-02-04 06:13:00,
2013-02-04 00:18:00,36.5,26.2,30.04,NNE,27,2.2,2.2,66,0.00,,,0.00,VWS V13.01,2013-02-04 06:18:00,
2013-02-04 00:23:00,36.7,27.5,30.04,NNE,27,2.2,2.2,69,0.00,,,0.00,VWS V13.01,2013-02-04 06:23:00,
2013-02-04 00:28:00,36.7,26.4,30.04,NE,35,2.7,2.7,66,0.00,,,0.00,VWS V13.01,2013-02-04 06:28:00,
2013-02-04 00:33:00,36.8,26.6,30.01,NE,43,2.7,2.7,66,0.00,,,0.00,VWS V13.01,2013-02-04 06:33:00,
2013-02-04 00:38:00,37.0,26.0,30.01,NNE,26,3.1,4.0,64,0.00,,,0.00,VWS V13.01,2013-02-04 06:38:00,
2013-02-04 00:43:00,37.4,25.2,30.01,NE,45,3.6,4.0,61,0.00,,,0.00,VWS V13.01,2013-02-04 06:43:00,
2013-02-04 00:48:00,38.1,25.5,30.01,NE,34,2.7,3.1,60,0.00,,,0.00,VWS V13.01,2013-02-04 06:48:00,
2013-02-04 00:53:00,38.5,27.4,30.01,North,8,2.2,2.7,64,0.00,,,0.00,VWS V13.01,2013-02-04 06:53:00,
2013-02-04 00:57:00,38.1,26.6,30.01,ENE,59,3.1,3.6,63,0.00,,,0.00,VWS V13.01,2013-02-04 06:57:00,
2013-02-04 01:02:00,37.9,26.1,30.01,NE,46,3.1,3.6,62,0.00,,,0.00,VWS V13.01,2013-02-04 07:02:00,
2013-02-04 01:07:00,37.9,26.8,30.01,NE,48,3.1,3.1,64,0.00,,,0.00,VWS V13.01,2013-02-04 07:07:00,
2013-02-04 01:12:00,37.7,26.7,30.01,NE,48,2.7,2.7,64,0.00,,,0.00,VWS V13.01,2013-02-04 07:12:00,
2013-02-04 01:17:00,38.1,27.0,30.01,NNE,16,2.7,3.1,64,0.00,,,0.00,VWS V13.01,2013-02-04 07:17:00,
2013-02-04 01:22:00,38.3,26.0,30.01,NNE,31,3.6,3.6,61,0.00,,,0.00,VWS V13.01,2013-02-04 07:22:00,
2013-02-04 01:27:00,38.5,26.2,30.01,NE,46,3.1,3.6,61,0.00,,,0.00,VWS V13.01,2013-02-04 07:27:00,
2013-02-04 01:32:00,38.6,26.4,30.01,NE,41,4.5,4.5,61,0.00,,,0.00,VWS V13.01,2013-02-04 07:32:00,
2013-02-04 01:37:00,38.8,27.3,30.01,ENE,57,2.7,3.1,63,0.00,,,0.00,VWS V13.01,2013-02-04 07:37:00,
2013-02-04 01:42:00,38.3,26.8,30.01,ENE,59,3.1,3.1,63,0.00,,,0.00,VWS V13.01,2013-02-04 07:42:00,
2013-02-04 01:47:00,38.3,26.4,29.98,NE,43,3.6,4.0,62,0.00,,,0.00,VWS V13.01,2013-02-04 07:47:00,
2013-02-04 01:52:00,38.6,26.4,29.98,NNE,31,2.7,2.7,61,0.00,,,0.00,VWS V13.01,2013-02-04 07:52:00,
2013-02-04 01:57:00,39.2,26.5,29.98,NE,52,2.7,2.7,60,0.00,,,0.00,VWS V13.01,2013-02-04 07:57:00,
2013-02-04 02:02:00,39.7,26.6,29.98,NE,40,2.7,3.6,59,0.00,,,0.00,VWS V13.01,2013-02-04 08:02:00,
2013-02-04 02:07:00,40.1,27.3,29.98,NE,44,2.7,3.1,60,0.00,,,0.00,VWS V13.01,2013-02-04 08:07:00,
2013-02-04 02:12:00,40.1,27.7,29.98,NE,43,2.7,2.7,61,0.00,,,0.00,VWS V13.01,2013-02-04 08:12:00,
2013-02-04 02:17:00,40.1,26.9,29.98,ENE,57,3.1,3.6,59,0.00,,,0.00,VWS V13.01,2013-02-04 08:17:00,
2013-02-04 02:22:00,40.4,27.3,29.98,NE,41,2.7,2.7,59,0.00,,,0.00,VWS V13.01,2013-02-04 08:22:00,
2013-02-04 02:27:00,41.0,27.4,29.98,NE,49,3.1,3.6,58,0.00,,,0.00,VWS V13.01,2013-02-04 08:27:00,
2013-02-04 02:32:00,41.7,28.0,29.98,NNE,17,2.7,3.1,58,0.00,,,0.00,VWS V13.01,2013-02-04 08:32:00,
2013-02-04 02:37:00,41.9,28.2,29.98,NNE,20,2.7,2.7,58,0.00,,,0.00,VWS V13.01,2013-02-04 08:37:00,
2013-02-04 02:42:00,41.7,27.2,29.98,NE,48,4.0,4.0,56,0.00,,,0.00,VWS V13.01,2013-02-04 08:42:00,
2013-02-04 02:47:00,42.1,27.9,29.95,NNE,20,2.7,3.1,57,0.00,,,0.00,VWS V13.01,2013-02-04 08:47:00,
2013-02-04 02:52:00,42.4,27.9,29.95,NNE,14,2.7,2.7,56,0.00,,,0.00,VWS V13.01,2013-02-04 08:52:00,
2013-02-04 02:57:00,42.6,27.1,29.95,NE,46,3.6,3.6,54,0.00,,,0.00,VWS V13.01,2013-02-04 08:57:00,
2013-02-04 03:02:00,42.8,27.3,29.95,NE,34,2.7,2.7,54,0.00,,,0.00,VWS V13.01,2013-02-04 09:02:00,
2013-02-04 03:07:00,42.8,27.3,29.95,NE,34,2.2,2.7,54,0.00,,,0.00,VWS V13.01,2013-02-04 09:07:00,
2013-02-04 03:12:00,42.8,27.3,29.95,NE,34,2.2,2.2,54,0.00,,,0.00,VWS V13.01,2013-02-04 09:12:00,
2013-02-04 03:17:00,42.6,27.1,29.95,NE,34,0.0,2.2,54,0.00,,,0.00,VWS V13.01,2013-02-04 09:17:00,
2013-02-04 03:22:00,42.6,28.5,29.95,NE,34,2.2,2.2,57,0.00,,,0.00,VWS V13.01,2013-02-04 09:22:00,
2013-02-04 03:27:00,42.1,27.1,29.95,North,1,2.7,2.7,55,0.00,,,0.00,VWS V13.01,2013-02-04 09:27:00,
2013-02-04 03:32:00,42.2,27.2,29.95,North,2,2.7,2.7,55,0.00,,,0.00,VWS V13.01,2013-02-04 09:32:00,
2013-02-04 03:37:00,42.6,26.7,29.95,NNE,32,3.1,3.1,53,0.00,,,0.00,VWS V13.01,2013-02-04 09:37:00,
2013-02-04 03:42:00,42.8,26.9,29.95,NNE,19,0.0,0.0,53,0.00,,,0.00,VWS V13.01,2013-02-04 09:42:00,
2013-02-04 03:47:00,42.8,27.3,29.95,NNE,28,0.0,0.0,54,0.00,,,0.00,VWS V13.01,2013-02-04 09:47:00,
2013-02-04 03:52:00,43.0,26.6,29.95,NE,34,3.6,3.6,52,0.00,,,0.00,VWS V13.01,2013-02-04 09:52:00,
2013-02-04 03:57:00,43.0,26.6,29.95,NE,38,2.2,2.2,52,0.00,,,0.00,VWS V13.01,2013-02-04 09:57:00,
2013-02-04 04:02:00,43.0,26.6,29.95,NE,38,0.0,0.0,52,0.00,,,0.00,VWS V13.01,2013-02-04 10:02:00,
2013-02-04 04:07:00,42.8,27.8,29.95,North,10,0.0,0.0,55,0.00,,,0.00,VWS V13.01,2013-02-04 10:07:00,
2013-02-04 04:12:00,42.6,27.1,29.95,North,10,0.0,0.0,54,0.00,,,0.00,VWS V13.01,2013-02-04 10:12:00,
2013-02-04 04:17:00,42.6,26.7,29.95,NNE,25,3.1,3.1,53,0.00,,,0.00,VWS V13.01,2013-02-04 10:17:00,
2013-02-04 04:22:00,43.1,26.7,29.95,NNE,21,4.0,4.0,52,0.00,,,0.00,VWS V13.01,2013-02-04 10:22:00,
2013-02-04 04:27:00,43.3,26.9,29.95,NE,40,3.6,3.6,52,0.00,,,0.00,VWS V13.01,2013-02-04 10:27:00,
2013-02-04 04:32:00,43.3,26.9,29.95,NE,39,4.0,4.0,52,0.00,,,0.00,VWS V13.01,2013-02-04 10:32:00,
2013-02-04 04:37:00,43.5,26.6,29.95,NE,40,4.0,4.0,51,0.00,,,0.00,VWS V13.01,2013-02-04 10:37:00,
2013-02-04 04:42:00,43.5,27.1,29.95,NE,34,4.0,4.0,52,0.00,,,0.00,VWS V13.01,2013-02-04 10:42:00,
2013-02-04 04:47:00,43.3,26.9,29.95,NNE,23,4.5,4.9,52,0.00,,,0.00,VWS V13.01,2013-02-04 10:47:00,
2013-02-04 04:52:00,43.3,26.9,29.95,NE,42,2.7,2.7,52,0.00,,,0.00,VWS V13.01,2013-02-04 10:52:00,
2013-02-04 04:57:00,43.3,27.4,29.95,NE,34,3.6,3.6,53,0.00,,,0.00,VWS V13.01,2013-02-04 10:57:00,
2013-02-04 05:02:00,43.3,26.9,29.95,NE,36,0.0,0.0,52,0.00,,,0.00,VWS V13.01,2013-02-04 11:02:00,
2013-02-04 05:07:00,43.3,26.9,29.95,NE,48,4.0,4.0,52,0.00,,,0.00,VWS V13.01,2013-02-04 11:07:00,
2013-02-04 05:12:00,43.7,27.2,29.95,NNE,25,4.0,4.0,52,0.00,,,0.00,VWS V13.01,2013-02-04 11:12:00,
2013-02-04 05:17:00,43.9,26.9,29.92,NE,37,4.0,4.9,51,0.00,,,0.00,VWS V13.01,2013-02-04 11:17:00,
2013-02-04 05:22:00,43.7,27.2,29.92,NE,51,3.1,4.0,52,0.00,,,0.00,VWS V13.01,2013-02-04 11:22:00,
2013-02-04 05:27:00,43.7,27.2,29.92,ENE,58,2.7,2.7,52,0.00,,,0.00,VWS V13.01,2013-02-04 11:27:00,
2013-02-04 05:32:00,43.5,26.6,29.92,NNE,23,4.0,5.4,51,0.00,,,0.00,VWS V13.01,2013-02-04 11:32:00,
2013-02-04 05:37:00,43.5,27.1,29.92,NE,42,3.6,4.0,52,0.00,,,0.00,VWS V13.01,2013-02-04 11:37:00,
2013-02-04 05:42:00,43.5,27.1,29.92,NE,36,3.1,4.0,52,0.00,,,0.00,VWS V13.01,2013-02-04 11:42:00,
2013-02-04 05:47:00,43.5,27.5,29.92,North,358,2.2,3.1,53,0.00,,,0.00,VWS V13.01,2013-02-04 11:47:00,
2013-02-04 05:52:00,43.3,27.4,29.92,NNW,342,2.7,2.7,53,0.00,,,0.00,VWS V13.01,2013-02-04 11:52:00,
2013-02-04 05:57:00,43.3,26.9,29.92,NNE,15,2.2,3.1,52,0.00,,,0.00,VWS V13.01,2013-02-04 11:57:00,
2013-02-04 06:02:00,43.5,27.1,29.95,ENE,75,0.0,2.7,52,0.00,,,0.00,VWS V13.01,2013-02-04 12:02:00,
2013-02-04 06:07:00,43.5,27.1,29.95,ENE,75,0.0,0.0,52,0.00,,,0.00,VWS V13.01,2013-02-04 12:07:00,
2013-02-04 06:12:00,43.3,29.5,29.95,North,1,3.6,3.6,58,0.00,,,0.00,VWS V13.01,2013-02-04 12:12:00,
2013-02-04 06:17:00,43.0,29.2,29.92,NE,49,5.4,5.4,58,0.00,,,0.00,VWS V13.01,2013-02-04 12:17:00,
2013-02-04 06:22:00,42.8,29.0,29.92,NNE,26,4.9,5.4,58,0.00,,,0.00,VWS V13.01,2013-02-04 12:22:00,
2013-02-04 06:27:00,42.4,29.9,29.92,East,83,3.6,3.6,61,0.00,,,0.00,VWS V13.01,2013-02-04 12:27:00,
2013-02-04 06:32:00,41.7,29.7,29.92,NE,41,4.0,4.9,62,0.00,,,0.00,VWS V13.01,2013-02-04 12:32:00,
2013-02-04 06:37:00,41.5,31.0,29.92,NW,305,3.6,3.6,66,0.00,,,0.00,VWS V13.01,2013-02-04 12:37:00,
2013-02-04 06:42:00,41.3,31.6,29.92,North,359,3.1,3.6,68,0.00,,,0.00,VWS V13.01,2013-02-04 12:42:00,
2013-02-04 06:47:00,41.3,31.6,29.92,NNE,21,4.0,5.4,68,0.00,,,0.00,VWS V13.01,2013-02-04 12:47:00,
2013-02-04 06:52:00,41.7,31.2,29.92,NE,43,3.6,5.4,66,0.00,,,0.00,VWS V13.01,2013-02-04 12:52:00,
2013-02-04 06:57:00,41.7,32.3,29.92,NNW,342,0.0,3.1,69,0.00,,,0.00,VWS V13.01,2013-02-04 12:57:00,
2013-02-04 07:01:00,41.5,31.8,29.95,NNE,29,4.9,5.4,68,0.00,,,0.00,VWS V13.01,2013-02-04 13:01:00,
2013-02-04 07:06:00,41.7,32.7,29.95,NNE,26,5.4,5.8,70,0.00,,,0.00,VWS V13.01,2013-02-04 13:06:00,
2013-02-04 07:11:00,41.5,32.5,29.95,NNE,29,3.1,4.0,70,0.00,,,0.00,VWS V13.01,2013-02-04 13:11:00,
2013-02-04 07:16:00,41.3,33.0,29.95,NE,42,4.0,4.0,72,0.00,,,0.00,VWS V13.01,2013-02-04 13:16:00,
2013-02-04 07:21:00,41.0,34.0,29.95,NE,38,4.5,5.4,76,0.00,,,0.00,VWS V13.01,2013-02-04 13:21:00,
2013-02-04 07:26:00,40.6,34.0,29.95,NNE,28,0.0,0.0,77,0.00,,,0.00,VWS V13.01,2013-02-04 13:26:00,
2013-02-04 07:31:00,40.4,33.5,29.95,NE,42,2.7,2.7,76,0.00,,,0.00,VWS V13.01,2013-02-04 13:31:00,
2013-02-04 07:36:00,40.6,33.0,29.95,NNE,14,2.7,3.6,74,0.00,,,0.00,VWS V13.01,2013-02-04 13:36:00,
2013-02-04 07:41:00,40.8,33.2,29.95,NNE,12,2.7,3.1,74,0.00,,,0.00,VWS V13.01,2013-02-04 13:41:00,
2013-02-04 07:46:00,41.0,34.0,29.95,North,358,2.7,3.1,76,0.00,,,0.00,VWS V13.01,2013-02-04 13:46:00,
2013-02-04 07:51:00,41.2,33.8,29.95,North,10,0.0,0.0,75,0.00,,,0.00,VWS V13.01,2013-02-04 13:51:00,
2013-02-04 07:56:00,41.0,33.7,29.95,NNE,29,3.1,3.1,75,0.00,,,0.00,VWS V13.01,2013-02-04 13:56:00,
2013-02-04 08:01:00,41.2,32.8,29.95,NNE,32,3.6,4.0,72,0.00,,,0.00,VWS V13.01,2013-02-04 14:01:00,
2013-02-04 08:06:00,41.2,33.2,29.95,NE,35,4.0,4.0,73,0.00,,,0.00,VWS V13.01,2013-02-04 14:06:00,
2013-02-04 08:11:00,41.2,33.8,29.95,North,1,3.1,3.1,75,0.00,,,0.00,VWS V13.01,2013-02-04 14:11:00,
2013-02-04 08:16:00,41.2,34.2,29.95,NNE,20,3.6,3.6,76,0.00,,,0.00,VWS V13.01,2013-02-04 14:16:00,
2013-02-04 08:21:00,41.2,34.8,29.95,NE,44,3.1,3.6,78,0.00,,,0.00,VWS V13.01,2013-02-04 14:21:00,
2013-02-04 08:26:00,41.0,36.2,29.95,North,353,2.7,3.1,83,0.00,,,0.00,VWS V13.01,2013-02-04 14:26:00,
2013-02-04 08:31:00,40.8,36.7,29.95,North,358,2.2,2.2,85,0.00,,,0.04,VWS V13.01,2013-02-04 14:31:00,
2013-02-04 08:36:00,40.8,36.3,29.95,NE,50,3.6,3.6,84,0.04,,,0.04,VWS V13.01,2013-02-04 14:36:00,
2013-02-04 08:41:00,40.6,36.2,29.95,ENE,76,0.0,0.0,84,0.04,,,0.04,VWS V13.01,2013-02-04 14:41:00,
2013-02-04 08:46:00,40.6,37.3,29.95,ENE,62,0.0,0.0,88,0.04,,,0.04,VWS V13.01,2013-02-04 14:46:00,
2013-02-04 08:51:00,40.4,37.5,29.95,ENE,62,0.0,0.0,89,0.04,,,0.04,VWS V13.01,2013-02-04 14:51:00,
2013-02-04 08:56:00,40.4,38.3,29.95,NE,38,3.1,3.1,92,0.04,,,0.04,VWS V13.01,2013-02-04 14:56:00,
2013-02-04 09:01:00,40.3,39.2,29.95,North,11,0.0,2.2,96,0.08,,,0.08,VWS V13.01,2013-02-04 15:01:00,
2013-02-04 09:06:00,40.3,39.5,29.95,NNE,24,3.1,3.1,97,0.08,,,0.08,VWS V13.01,2013-02-04 15:06:00,
2013-02-04 09:11:00,40.3,39.5,29.95,NNE,24,2.7,2.7,97,0.08,,,0.08,VWS V13.01,2013-02-04 15:11:00,
2013-02-04 09:16:00,40.4,39.7,29.95,NNE,24,0.0,0.0,97,0.08,,,0.08,VWS V13.01,2013-02-04 15:16:00,
2013-02-04 09:21:00,40.4,39.7,29.95,NE,46,3.1,3.1,97,0.08,,,0.08,VWS V13.01,2013-02-04 15:21:00,
2013-02-04 09:26:00,40.4,39.9,29.95,NNE,32,2.7,2.7,98,0.08,,,0.08,VWS V13.01,2013-02-04 15:26:00,
2013-02-04 09:31:00,40.4,39.9,29.95,NNE,25,5.4,6.3,98,0.08,,,0.08,VWS V13.01,2013-02-04 15:31:00,
2013-02-04 09:36:00,40.4,39.7,29.95,East,90,3.1,3.6,97,0.04,,,0.08,VWS V13.01,2013-02-04 15:36:00,
2013-02-04 09:41:00,40.6,39.8,29.95,NNE,31,4.9,5.8,97,0.04,,,0.08,VWS V13.01,2013-02-04 15:41:00,
2013-02-04 09:46:00,40.8,39.5,29.95,NNE,26,5.4,5.4,95,0.04,,,0.08,VWS V13.01,2013-02-04 15:46:00,
2013-02-04 09:51:00,41.0,39.4,29.95,NNE,30,4.0,4.0,94,0.04,,,0.08,VWS V13.01,2013-02-04 15:51:00,
2013-02-04 09:56:00,41.2,39.6,29.95,NNE,23,3.1,3.6,94,0.04,,,0.08,VWS V13.01,2013-02-04 15:56:00,
2013-02-04 10:01:00,41.3,40.3,29.95,NE,45,3.6,3.6,96,0.00,,,0.08,VWS V13.01,2013-02-04 16:01:00,
2013-02-04 10:06:00,41.5,40.7,29.95,NNE,30,2.7,2.7,97,0.00,,,0.08,VWS V13.01,2013-02-04 16:06:00,
2013-02-04 10:11:00,41.7,40.9,29.95,NE,52,2.7,3.6,97,0.00,,,0.08,VWS V13.01,2013-02-04 16:11:00,
2013-02-04 10:16:00,41.7,41.2,29.95,NNE,22,3.6,3.6,98,0.00,,,0.08,VWS V13.01,2013-02-04 16:16:00,
2013-02-04 10:21:00,41.7,40.7,29.95,ENE,57,4.0,4.0,96,0.00,,,0.08,VWS V13.01,2013-02-04 16:21:00,
2013-02-04 10:26:00,41.9,40.6,29.95,ENE,57,4.9,4.9,95,0.00,,,0.08,VWS V13.01,2013-02-04 16:26:00,
2013-02-04 10:31:00,42.1,40.7,29.95,NE,41,2.7,3.1,95,0.00,,,0.08,VWS V13.01,2013-02-04 16:31:00,
2013-02-04 10:36:00,42.1,40.5,29.95,NE,52,4.0,4.0,94,0.00,,,0.08,VWS V13.01,2013-02-04 16:36:00,
2013-02-04 10:41:00,42.2,40.9,29.95,NNE,14,3.6,3.6,95,0.00,,,0.08,VWS V13.01,2013-02-04 16:41:00,
2013-02-04 10:46:00,42.2,40.4,29.95,NNE,18,3.6,3.6,93,0.00,,,0.08,VWS V13.01,2013-02-04 16:46:00,
2013-02-04 10:51:00,42.4,40.8,29.95,NNE,15,2.7,2.7,94,0.00,,,0.08,VWS V13.01,2013-02-04 16:51:00,
2013-02-04 10:56:00,42.6,41.0,29.95,NNE,31,4.9,4.9,94,0.00,,,0.08,VWS V13.01,2013-02-04 16:56:00,
2013-02-04 11:01:00,42.8,41.5,29.95,NE,38,3.6,4.9,95,0.00,,,0.08,VWS V13.01,2013-02-04 17:01:00,
2013-02-04 11:06:00,42.8,41.5,29.95,NNE,25,5.8,5.8,95,0.00,,,0.08,VWS V13.01,2013-02-04 17:06:00,
2013-02-04 11:11:00,43.0,41.4,29.95,NE,38,4.0,4.9,94,0.00,,,0.08,VWS V13.01,2013-02-04 17:11:00,
2013-02-04 11:16:00,43.3,41.7,29.95,NE,37,3.6,3.6,94,0.00,,,0.08,VWS V13.01,2013-02-04 17:16:00,
2013-02-04 11:21:00,43.5,42.2,29.95,NNE,12,2.7,2.7,95,0.04,,,0.12,VWS V13.01,2013-02-04 17:21:00,
2013-02-04 11:26:00,43.7,41.8,29.95,NNE,24,3.6,3.6,93,0.04,,,0.12,VWS V13.01,2013-02-04 17:26:00,
2013-02-04 11:31:00,43.5,41.3,29.92,NE,35,3.6,3.6,92,0.04,,,0.12,VWS V13.01,2013-02-04 17:31:00,
2013-02-04 11:36:00,43.5,41.0,29.92,North,4,0.0,0.0,91,0.04,,,0.12,VWS V13.01,2013-02-04 17:36:00,
2013-02-04 11:41:00,43.5,41.3,29.92,NNE,26,3.1,3.1,92,0.04,,,0.12,VWS V13.01,2013-02-04 17:41:00,
2013-02-04 11:46:00,43.7,41.8,29.92,North,5,3.6,3.6,93,0.04,,,0.12,VWS V13.01,2013-02-04 17:46:00,
2013-02-04 11:51:00,43.7,41.8,29.92,NNE,25,3.6,5.8,93,0.04,,,0.12,VWS V13.01,2013-02-04 17:51:00,
2013-02-04 11:56:00,43.9,42.0,29.92,NE,39,4.9,4.9,93,0.04,,,0.12,VWS V13.01,2013-02-04 17:56:00,
2013-02-04 12:01:00,44.0,41.9,29.92,NE,46,5.8,5.8,92,0.04,,,0.12,VWS V13.01,2013-02-04 18:01:00,
2013-02-04 12:06:00,44.0,41.9,29.92,NNE,20,4.9,4.9,92,0.04,,,0.12,VWS V13.01,2013-02-04 18:06:00,
2013-02-04 12:11:00,44.0,41.9,29.92,NNE,20,2.2,2.7,92,0.04,,,0.12,VWS V13.01,2013-02-04 18:11:00,
2013-02-04 12:16:00,44.2,42.0,29.92,NNE,25,4.9,4.9,92,0.04,,,0.12,VWS V13.01,2013-02-04 18:16:00,
2013-02-04 12:21:00,44.2,42.0,29.92,NNE,20,4.0,4.0,92,0.00,,,0.12,VWS V13.01,2013-02-04 18:21:00,
2013-02-04 12:26:00,44.4,41.9,29.92,NE,36,4.0,4.0,91,0.00,,,0.12,VWS V13.01,2013-02-04 18:26:00,
2013-02-04 12:31:00,44.4,41.1,29.92,North,358,4.9,4.9,88,0.00,,,0.12,VWS V13.01,2013-02-04 18:31:00,
2013-02-04 12:36:00,44.6,41.2,29.92,NNE,26,2.7,2.7,88,0.00,,,0.12,VWS V13.01,2013-02-04 18:36:00,
2013-02-04 12:41:00,44.4,41.4,29.92,NNE,13,4.0,4.9,89,0.00,,,0.12,VWS V13.01,2013-02-04 18:41:00,
2013-02-04 12:46:00,44.6,42.1,29.92,NNE,25,3.6,3.6,91,0.00,,,0.12,VWS V13.01,2013-02-04 18:46:00,
2013-02-04 12:51:00,44.4,41.4,29.92,NE,50,4.0,4.0,89,0.00,,,0.12,VWS V13.01,2013-02-04 18:51:00,
2013-02-04 12:56:00,44.4,41.7,29.92,ENE,57,3.6,3.6,90,0.00,,,0.12,VWS V13.01,2013-02-04 18:56:00,
2013-02-04 13:01:00,44.6,42.4,29.92,NNE,30,3.1,3.1,92,0.00,,,0.12,VWS V13.01,2013-02-04 19:01:00,
2013-02-04 13:06:00,44.6,42.4,29.92,NNE,24,2.7,2.7,92,0.00,,,0.12,VWS V13.01,2013-02-04 19:06:00,
2013-02-04 13:11:00,44.8,42.3,29.92,NE,34,3.1,3.6,91,0.00,,,0.12,VWS V13.01,2013-02-04 19:11:00,
2013-02-04 13:16:00,44.9,42.8,29.92,NE,49,2.7,2.7,92,0.00,,,0.12,VWS V13.01,2013-02-04 19:16:00,
2013-02-04 13:21:00,45.1,42.4,29.92,NNE,24,3.1,4.0,90,0.00,,,0.12,VWS V13.01,2013-02-04 19:21:00,
2013-02-04 13:26:00,45.3,42.3,29.92,NE,47,3.1,3.1,89,0.00,,,0.12,VWS V13.01,2013-02-04 19:26:00,
2013-02-04 13:31:00,45.3,40.8,29.92,NE,55,3.6,4.9,84,0.00,,,0.12,VWS V13.01,2013-02-04 19:31:00,
2013-02-04 13:36:00,45.5,40.3,29.92,ENE,61,3.6,3.6,82,0.00,,,0.12,VWS V13.01,2013-02-04 19:36:00,
2013-02-04 13:41:00,45.7,40.2,29.92,NE,53,3.6,3.6,81,0.00,,,0.12,VWS V13.01,2013-02-04 19:41:00,
2013-02-04 13:46:00,45.7,39.8,29.92,NE,34,3.6,3.6,80,0.00,,,0.12,VWS V13.01,2013-02-04 19:46:00,
2013-02-04 13:51:00,45.7,40.2,29.92,NE,56,3.6,3.6,81,0.00,,,0.12,VWS V13.01,2013-02-04 19:51:00,
2013-02-04 13:56:00,45.8,40.3,29.92,NNE,31,5.4,5.4,81,0.00,,,0.12,VWS V13.01,2013-02-04 19:56:00,
2013-02-04 14:01:00,46.0,41.5,29.92,NNE,33,2.7,3.6,84,0.00,,,0.12,VWS V13.01,2013-02-04 20:01:00,
2013-02-04 14:06:00,46.2,41.3,29.92,NNE,24,4.0,4.0,83,0.00,,,0.12,VWS V13.01,2013-02-04 20:06:00,
2013-02-04 14:11:00,46.2,40.1,29.92,NNE,24,4.9,5.4,79,0.00,,,0.12,VWS V13.01,2013-02-04 20:11:00,
2013-02-04 14:16:00,46.2,39.7,29.89,NE,39,3.6,6.3,78,0.00,,,0.12,VWS V13.01,2013-02-04 20:16:00,
2013-02-04 14:21:00,46.2,40.4,29.89,NNE,29,4.0,4.5,80,0.00,,,0.12,VWS V13.01,2013-02-04 20:21:00,
2013-02-04 14:26:00,46.4,40.2,29.89,ENE,61,4.0,4.9,79,0.00,,,0.12,VWS V13.01,2013-02-04 20:26:00,
2013-02-04 14:31:00,46.4,40.6,29.89,NE,50,3.6,3.6,80,0.00,,,0.12,VWS V13.01,2013-02-04 20:31:00,
2013-02-04 14:36:00,46.7,40.6,29.89,NE,49,4.0,4.0,79,0.00,,,0.12,VWS V13.01,2013-02-04 20:36:00,
2013-02-04 14:41:00,46.9,40.1,29.89,ESE,110,4.9,5.4,77,0.00,,,0.12,VWS V13.01,2013-02-04 20:41:00,
2013-02-04 14:46:00,47.1,39.9,29.89,NE,35,4.0,5.4,76,0.00,,,0.12,VWS V13.01,2013-02-04 20:46:00,
2013-02-04 14:51:00,47.3,40.5,29.89,NE,38,4.0,4.0,77,0.00,,,0.12,VWS V13.01,2013-02-04 20:51:00,
2013-02-04 14:56:00,47.5,39.6,29.89,NE,37,5.8,5.8,74,0.00,,,0.12,VWS V13.01,2013-02-04 20:56:00,
2013-02-04 15:01:00,48.0,40.1,29.89,NNE,22,3.6,4.0,74,0.00,,,0.12,VWS V13.01,2013-02-04 21:01:00,
2013-02-04 15:06:00,48.4,39.8,29.89,NE,39,3.1,4.0,72,0.00,,,0.12,VWS V13.01,2013-02-04 21:06:00,
2013-02-04 15:11:00,48.5,39.6,29.89,NNE,24,4.0,4.5,71,0.00,,,0.12,VWS V13.01,2013-02-04 21:11:00,
2013-02-04 15:16:00,48.7,39.4,29.89,NE,41,3.1,3.6,70,0.00,,,0.12,VWS V13.01,2013-02-04 21:16:00,
2013-02-04 15:20:00,48.7,39.0,29.89,NNE,28,3.6,4.0,69,0.00,,,0.12,VWS V13.01,2013-02-04 21:20:00,
2013-02-04 15:25:00,48.9,39.2,29.89,NNE,27,3.6,4.0,69,0.00,,,0.12,VWS V13.01,2013-02-04 21:25:00,
2013-02-04 15:30:00,48.7,39.4,29.89,NNE,33,2.7,3.1,70,0.00,,,0.12,VWS V13.01,2013-02-04 21:30:00,
2013-02-04 15:35:00,48.9,39.9,29.89,NE,53,2.7,4.0,71,0.00,,,0.12,VWS V13.01,2013-02-04 21:35:00,
2013-02-04 15:40:00,49.1,39.7,29.89,ENE,71,2.2,3.1,70,0.00,,,0.12,VWS V13.01,2013-02-04 21:40:00,
2013-02-04 15:45:00,49.1,39.4,29.89,NNE,33,2.7,3.1,69,0.00,,,0.12,VWS V13.01,2013-02-04 21:45:00,
2013-02-04 15:50:00,49.1,39.7,29.89,East,101,3.6,4.0,70,0.00,,,0.12,VWS V13.01,2013-02-04 21:50:00,
2013-02-04 15:55:00,48.9,39.6,29.89,East,96,3.1,3.6,70,0.00,,,0.12,VWS V13.01,2013-02-04 21:55:00,
2013-02-04 16:00:00,48.9,39.9,29.89,SE,129,3.1,3.1,71,0.00,,,0.12,VWS V13.01,2013-02-04 22:00:00,
2013-02-04 16:05:00,49.1,40.1,29.89,ENE,71,3.1,3.6,71,0.00,,,0.12,VWS V13.01,2013-02-04 22:05:00,
2013-02-04 16:10:00,49.1,40.1,29.89,ENE,73,2.7,3.1,71,0.00,,,0.12,VWS V13.01,2013-02-04 22:10:00,
2013-02-04 16:15:00,49.1,40.1,29.89,East,89,2.2,3.1,71,0.00,,,0.12,VWS V13.01,2013-02-04 22:15:00,
2013-02-04 16:20:00,49.1,40.1,29.89,ESE,112,2.7,3.1,71,0.00,,,0.12,VWS V13.01,2013-02-04 22:20:00,
2013-02-04 16:25:00,49.1,40.1,29.89,ENE,58,2.7,2.7,71,0.00,,,0.12,VWS V13.01,2013-02-04 22:25:00,
2013-02-04 16:30:00,49.3,39.9,29.89,East,86,2.7,3.6,70,0.00,,,0.12,VWS V13.01,2013-02-04 22:30:00,
2013-02-04 16:35:00,49.3,40.3,29.89,East,82,2.7,2.7,71,0.00,,,0.12,VWS V13.01,2013-02-04 22:35:00,
2013-02-04 16:40:00,49.3,40.3,29.89,East,101,4.0,4.9,71,0.00,,,0.12,VWS V13.01,2013-02-04 22:40:00,
2013-02-04 16:45:00,49.1,40.1,29.86,ESE,121,0.0,0.0,71,0.00,,,0.12,VWS V13.01,2013-02-04 22:45:00,
2013-02-04 16:50:00,49.3,40.6,29.86,ESE,115,2.7,3.1,72,0.00,,,0.12,VWS V13.01,2013-02-04 22:50:00,
2013-02-04 16:55:00,49.1,40.1,29.86,ESE,110,0.0,4.0,71,0.00,,,0.12,VWS V13.01,2013-02-04 22:55:00,
2013-02-04 17:00:00,48.9,40.3,29.89,ENE,57,3.6,3.6,72,0.00,,,0.12,VWS V13.01,2013-02-04 23:00:00,
2013-02-04 17:05:00,48.7,40.5,29.89,ESE,112,0.0,0.0,73,0.00,,,0.12,VWS V13.01,2013-02-04 23:05:00,
2013-02-04 17:10:00,48.7,40.8,29.89,SE,125,2.7,2.7,74,0.00,,,0.12,VWS V13.01,2013-02-04 23:10:00,
2013-02-04 17:15:00,48.5,40.6,29.86,East,93,0.0,0.0,74,0.00,,,0.12,VWS V13.01,2013-02-04 23:15:00,
2013-02-04 17:20:00,48.4,40.5,29.86,ESE,122,0.0,0.0,74,0.00,,,0.12,VWS V13.01,2013-02-04 23:20:00,
2013-02-04 17:25:00,48.2,40.3,29.86,ESE,122,0.0,0.0,74,0.00,,,0.12,VWS V13.01,2013-02-04 23:25:00,
2013-02-04 17:30:00,48.0,40.1,29.89,ESE,122,0.0,0.0,74,0.00,,,0.12,VWS V13.01,2013-02-04 23:30:00,
2013-02-04 17:35:00,47.8,40.6,29.89,ESE,122,0.0,0.0,76,0.00,,,0.12,VWS V13.01,2013-02-04 23:35:00,
2013-02-04 17:40:00,47.8,40.6,29.89,ESE,122,0.0,0.0,76,0.00,,,0.12,VWS V13.01,2013-02-04 23:40:00,
2013-02-04 17:45:00,47.6,40.5,29.89,ESE,122,0.0,0.0,76,0.00,,,0.12,VWS V13.01,2013-02-04 23:45:00,
2013-02-04 17:50:00,47.3,40.8,29.89,ESE,122,0.0,0.0,78,0.00,,,0.12,VWS V13.01,2013-02-04 23:50:00,
2013-02-04 17:55:00,47.1,40.9,29.89,ESE,122,0.0,0.0,79,0.00,,,0.12,VWS V13.01,2013-02-04 23:55:00,
2013-02-04 18:00:00,46.7,40.9,29.89,ESE,122,0.0,0.0,80,0.00,,,0.12,VWS V13.01,2013-02-05 00:00:00,
2013-02-04 18:05:00,46.4,40.9,29.89,ESE,122,0.0,0.0,81,0.00,,,0.12,VWS V13.01,2013-02-05 00:05:00,
2013-02-04 18:10:00,46.0,40.8,29.89,ESE,122,0.0,0.0,82,0.00,,,0.12,VWS V13.01,2013-02-05 00:10:00,
2013-02-04 18:15:00,45.5,40.6,29.89,ESE,122,0.0,0.0,83,0.00,,,0.12,VWS V13.01,2013-02-05 00:15:00,
2013-02-04 18:20:00,45.3,41.1,29.89,ESE,122,0.0,0.0,85,0.00,,,0.12,VWS V13.01,2013-02-05 00:20:00,
2013-02-04 18:25:00,44.8,40.5,29.89,ESE,122,0.0,0.0,85,0.00,,,0.12,VWS V13.01,2013-02-05 00:25:00,
2013-02-04 18:30:00,44.2,40.9,29.89,ESE,122,0.0,0.0,88,0.00,,,0.12,VWS V13.01,2013-02-05 00:30:00,
2013-02-04 18:35:00,43.5,40.2,29.89,NE,55,0.0,0.0,88,0.00,,,0.12,VWS V13.01,2013-02-05 00:35:00,
2013-02-04 18:40:00,42.8,39.8,29.89,NE,55,0.0,0.0,89,0.00,,,0.12,VWS V13.01,2013-02-05 00:40:00,
2013-02-04 18:45:00,42.2,39.5,29.89,NE,55,0.0,0.0,90,0.00,,,0.12,VWS V13.01,2013-02-05 00:45:00,
2013-02-04 18:50:00,41.7,39.3,29.89,NE,55,0.0,0.0,91,0.00,,,0.12,VWS V13.01,2013-02-05 00:50:00,
2013-02-04 18:55:00,41.3,39.2,29.89,NE,55,0.0,0.0,92,0.00,,,0.12,VWS V13.01,2013-02-05 00:55:00,
2013-02-04 19:00:00,41.0,39.1,29.89,NE,55,0.0,0.0,93,0.00,,,0.12,VWS V13.01,2013-02-05 01:00:00,
2013-02-04 19:05:00,40.8,39.2,29.89,NE,55,0.0,0.0,94,0.00,,,0.12,VWS V13.01,2013-02-05 01:05:00,
2013-02-04 19:10:00,40.4,39.4,29.89,NE,55,0.0,0.0,96,0.00,,,0.12,VWS V13.01,2013-02-05 01:10:00,
2013-02-04 19:15:00,40.1,39.0,29.92,NE,55,0.0,0.0,96,0.00,,,0.12,VWS V13.01,2013-02-05 01:15:00,
2013-02-04 19:20:00,39.5,38.2,29.92,NE,55,0.0,0.0,95,0.00,,,0.12,VWS V13.01,2013-02-05 01:20:00,
2013-02-04 19:25:00,39.2,38.1,29.92,NE,55,0.0,0.0,96,0.00,,,0.12,VWS V13.01,2013-02-05 01:25:00,
2013-02-04 19:30:00,39.2,38.4,29.92,NE,55,0.0,0.0,97,0.00,,,0.12,VWS V13.01,2013-02-05 01:30:00,
2013-02-04 19:35:00,39.4,39.1,29.92,NE,55,0.0,0.0,99,0.00,,,0.12,VWS V13.01,2013-02-05 01:35:00,
2013-02-04 19:40:00,39.0,39.0,29.92,NE,55,0.0,0.0,100,0.00,,,0.12,VWS V13.01,2013-02-05 01:40:00,
2013-02-04 19:45:00,38.6,38.6,29.92,NNE,31,0.0,0.0,100,0.00,,,0.12,VWS V13.01,2013-02-05 01:45:00,
2013-02-04 19:50:00,38.3,38.3,29.92,NNE,31,0.0,0.0,100,0.00,,,0.12,VWS V13.01,2013-02-05 01:50:00,
2013-02-04 19:55:00,37.9,37.9,29.92,NNE,31,0.0,0.0,100,0.00,,,0.12,VWS V13.01,2013-02-05 01:55:00,
2013-02-04 20:00:00,37.9,37.9,29.95,NNE,31,0.0,0.0,100,0.00,,,0.12,VWS V13.01,2013-02-05 02:00:00,
2013-02-04 20:05:00,37.9,37.9,29.95,NNE,31,0.0,0.0,100,0.00,,,0.12,VWS V13.01,2013-02-05 02:05:00,
2013-02-04 20:10:00,38.1,38.1,29.95,NNE,31,0.0,0.0,100,0.00,,,0.12,VWS V13.01,2013-02-05 02:10:00,
2013-02-04 20:15:00,38.3,38.3,29.95,NNE,31,0.0,0.0,100,0.00,,,0.12,VWS V13.01,2013-02-05 02:15:00,
2013-02-04 20:20:00,38.3,38.3,29.95,NNE,31,0.0,0.0,100,0.00,,,0.12,VWS V13.01,2013-02-05 02:20:00,
2013-02-04 20:25:00,38.1,38.1,29.95,NNE,31,0.0,0.0,100,0.00,,,0.12,VWS V13.01,2013-02-05 02:25:00,
2013-02-04 20:30:00,37.7,37.7,29.95,NNE,31,0.0,0.0,100,0.00,,,0.12,VWS V13.01,2013-02-05 02:30:00,
2013-02-04 20:35:00,37.4,37.4,29.95,NNE,31,0.0,0.0,100,0.00,,,0.12,VWS V13.01,2013-02-05 02:35:00,
2013-02-04 20:40:00,37.4,37.4,29.95,NNE,31,0.0,0.0,100,0.00,,,0.12,VWS V13.01,2013-02-05 02:40:00,
2013-02-04 20:45:00,37.2,37.2,29.95,NNE,31,0.0,0.0,100,0.00,,,0.12,VWS V13.01,2013-02-05 02:45:00,
2013-02-04 20:50:00,36.8,36.8,29.95,NNE,31,0.0,0.0,100,0.00,,,0.12,VWS V13.01,2013-02-05 02:50:00,
2013-02-04 20:55:00,36.3,36.3,29.95,NNE,31,0.0,0.0,100,0.00,,,0.12,VWS V13.01,2013-02-05 02:55:00,
2013-02-04 21:00:00,36.1,36.1,29.95,NNE,31,0.0,0.0,100,0.00,,,0.12,VWS V13.01,2013-02-05 03:00:00,
2013-02-04 21:05:00,35.9,35.9,29.95,NNE,31,0.0,0.0,100,0.00,,,0.12,VWS V13.01,2013-02-05 03:05:00,
2013-02-04 21:10:00,36.1,36.1,29.95,NNE,31,0.0,0.0,100,0.00,,,0.12,VWS V13.01,2013-02-05 03:10:00,
2013-02-04 21:15:00,36.1,36.1,29.95,NNE,31,0.0,0.0,100,0.00,,,0.12,VWS V13.01,2013-02-05 03:15:00,
2013-02-04 21:20:00,35.9,35.9,29.95,NNE,31,0.0,0.0,100,0.00,,,0.12,VWS V13.01,2013-02-05 03:20:00,
2013-02-04 21:25:00,35.8,35.8,29.95,NNE,31,0.0,0.0,100,0.00,,,0.12,VWS V13.01,2013-02-05 03:25:00,
2013-02-04 21:30:00,35.6,35.6,29.95,NNE,31,0.0,0.0,100,0.00,,,0.12,VWS V13.01,2013-02-05 03:30:00,
2013-02-04 21:35:00,35.4,35.4,29.95,NNE,31,0.0,0.0,100,0.00,,,0.12,VWS V13.01,2013-02-05 03:35:00,
2013-02-04 21:40:00,35.4,35.4,29.95,NNE,31,0.0,0.0,100,0.00,,,0.12,VWS V13.01,2013-02-05 03:40:00,
2013-02-04 21:45:00,35.2,35.2,29.92,NNE,31,0.0,0.0,100,0.00,,,0.12,VWS V13.01,2013-02-05 03:45:00,
2013-02-04 21:50:00,35.2,35.2,29.92,NNE,31,0.0,0.0,100,0.00,,,0.12,VWS V13.01,2013-02-05 03:50:00,
2013-02-04 21:55:00,34.9,34.9,29.92,NNE,31,0.0,0.0,100,0.00,,,0.12,VWS V13.01,2013-02-05 03:55:00,
2013-02-04 22:00:00,34.9,34.9,29.95,NNE,31,0.0,0.0,100,0.00,,,0.12,VWS V13.01,2013-02-05 04:00:00,
2013-02-04 22:05:00,35.0,35.0,29.95,NNE,31,0.0,0.0,100,0.00,,,0.12,VWS V13.01,2013-02-05 04:05:00,
2013-02-04 22:10:00,35.0,35.0,29.95,NNE,31,0.0,0.0,100,0.00,,,0.12,VWS V13.01,2013-02-05 04:10:00,
2013-02-04 22:15:00,35.0,35.0,29.95,NNE,31,0.0,0.0,100,0.00,,,0.12,VWS V13.01,2013-02-05 04:15:00,
2013-02-04 22:20:00,34.9,34.9,29.95,NNE,31,0.0,0.0,100,0.00,,,0.12,VWS V13.01,2013-02-05 04:20:00,
2013-02-04 22:25:00,34.7,34.7,29.95,NNE,31,0.0,0.0,100,0.00,,,0.12,VWS V13.01,2013-02-05 04:25:00,
2013-02-04 22:30:00,34.5,34.5,29.95,NNE,31,0.0,0.0,100,0.00,,,0.12,VWS V13.01,2013-02-05 04:30:00,
2013-02-04 22:35:00,34.1,34.1,29.95,NNE,31,0.0,0.0,100,0.00,,,0.12,VWS V13.01,2013-02-05 04:35:00,
2013-02-04 22:40:00,34.1,34.1,29.95,NNE,31,0.0,0.0,100,0.00,,,0.12,VWS V13.01,2013-02-05 04:40:00,
2013-02-04 22:45:00,34.0,34.0,29.95,NNE,31,0.0,0.0,100,0.00,,,0.12,VWS V13.01,2013-02-05 04:45:00,
2013-02-04 22:50:00,33.8,33.8,29.95,NNE,31,0.0,0.0,100,0.00,,,0.12,VWS V13.01,2013-02-05 04:50:00,
2013-02-04 22:55:00,33.6,33.6,29.95,NNE,31,0.0,0.0,100,0.00,,,0.12,VWS V13.01,2013-02-05 04:55:00,
2013-02-04 23:00:00,33.4,33.4,29.92,NNE,31,0.0,0.0,100,0.00,,,0.12,VWS V13.01,2013-02-05 05:00:00,
2013-02-04 23:05:00,33.4,33.4,29.92,NNE,31,0.0,0.0,100,0.00,,,0.12,VWS V13.01,2013-02-05 05:05:00,
2013-02-04 23:10:00,33.2,33.2,29.92,NNE,31,0.0,0.0,100,0.00,,,0.12,VWS V13.01,2013-02-05 05:10:00,
2013-02-04 23:15:00,33.2,33.2,29.92,NNE,31,0.0,0.0,100,0.00,,,0.12,VWS V13.01,2013-02-05 05:15:00,
2013-02-04 23:20:00,33.4,33.4,29.92,NNE,31,0.0,0.0,100,0.00,,,0.12,VWS V13.01,2013-02-05 05:20:00,
2013-02-04 23:25:00,33.1,33.1,29.92,NNE,31,0.0,0.0,100,0.00,,,0.12,VWS V13.01,2013-02-05 05:25:00,
2013-02-04 23:30:00,33.1,33.1,29.92,NNE,31,0.0,0.0,100,0.00,,,0.12,VWS V13.01,2013-02-05 05:30:00,
2013-02-04 23:35:00,32.7,32.7,29.92,NNE,31,0.0,0.0,100,0.00,,,0.12,VWS V13.01,2013-02-05 05:35:00,
2013-02-04 23:40:00,32.5,32.5,29.92,NNE,31,0.0,0.0,100,0.00,,,0.12,VWS V13.01,2013-02-05 05:40:00,
2013-02-04 23:45:00,32.5,32.5,29.92,NNE,31,0.0,0.0,100,0.00,,,0.12,VWS V13.01,2013-02-05 05:45:00,
2013-02-04 23:50:00,32.5,32.5,29.92,NNE,31,0.0,0.0,100,0.00,,,0.12,VWS V13.01,2013-02-05 05:50:00,
2013-02-04 23:55:00,32.5,32.5,29.92,NNE,31,0.0,0.0,100,0.00,,,0.12,VWS V13.01,2013-02-05 05:55:00,